sensor_id;sensor_type;location;lat;lon;timestamp;pressure;altitude;pressure_sealevel;temperature;humidity
80654;BME280;70020;45.524;10.240;2023-10-19T00:00:48;99628.06;;;18.27;65.28
80654;BME280;70020;45.524;10.240;2023-10-19T00:03:19;99624.16;;;18.23;64.69
80654;BME280;70020;45.524;10.240;2023-10-19T00:05:46;99638.72;;;18.18;65.18
80654;BME280;70020;45.524;10.240;2023-10-19T00:08:12;99639.88;;;18.15;65.29
80654;BME280;70020;45.524;10.240;2023-10-19T00:10:42;99630.38;;;18.22;65.33
80654;BME280;70020;45.524;10.240;2023-10-19T00:13:10;99622.84;;;18.27;65.20
80654;BME280;70020;45.524;10.240;2023-10-19T00:15:56;99614.66;;;18.30;65.49
80654;BME280;70020;45.524;10.240;2023-10-19T00:18:23;99617.44;;;18.21;64.78
80654;BME280;70020;45.524;10.240;2023-10-19T00:20:53;99618.28;;;18.21;64.87
80654;BME280;70020;45.524;10.240;2023-10-19T00:23:22;99617.63;;;18.19;65.17
80654;BME280;70020;45.524;10.240;2023-10-19T00:25:59;99624.97;;;18.24;64.96
80654;BME280;70020;45.524;10.240;2023-10-19T00:28:33;99626.13;;;18.13;65.26
80654;BME280;70020;45.524;10.240;2023-10-19T00:31:01;99617.81;;;18.10;65.26
80654;BME280;70020;45.524;10.240;2023-10-19T00:33:29;99621.06;;;18.04;65.39
80654;BME280;70020;45.524;10.240;2023-10-19T00:35:59;99614.84;;;18.13;65.44
80654;BME280;70020;45.524;10.240;2023-10-19T00:38:25;99610.91;;;18.01;65.16
80654;BME280;70020;45.524;10.240;2023-10-19T00:41:13;99590.16;;;17.91;65.68
80654;BME280;70020;45.524;10.240;2023-10-19T00:43:44;99593.13;;;17.88;65.49
80654;BME280;70020;45.524;10.240;2023-10-19T00:46:18;99593.28;;;17.95;65.43
80654;BME280;70020;45.524;10.240;2023-10-19T00:48:50;99582.31;;;17.91;66.06
80654;BME280;70020;45.524;10.240;2023-10-19T00:51:19;99583.94;;;17.84;66.25
80654;BME280;70020;45.524;10.240;2023-10-19T00:54:04;99589.97;;;18.01;65.71
80654;BME280;70020;45.524;10.240;2023-10-19T00:56:35;99584.75;;;18.01;65.69
80654;BME280;70020;45.524;10.240;2023-10-19T00:59:03;99583.78;;;18.10;66.24
80654;BME280;70020;45.524;10.240;2023-10-19T01:01:45;99577.72;;;18.01;65.32
80654;BME280;70020;45.524;10.240;2023-10-19T01:04:14;99572.28;;;18.11;65.44
80654;BME280;70020;45.524;10.240;2023-10-19T01:06:43;99566.31;;;17.78;66.10
80654;BME280;70020;45.524;10.240;2023-10-19T01:09:12;99555.16;;;17.92;65.98
80654;BME280;70020;45.524;10.240;2023-10-19T01:11:42;99545.34;;;17.94;66.01
80654;BME280;70020;45.524;10.240;2023-10-19T01:14:22;99530.78;;;18.00;66.21
80654;BME280;70020;45.524;10.240;2023-10-19T01:16:53;99529.81;;;17.85;66.52
80654;BME280;70020;45.524;10.240;2023-10-19T01:19:23;99532.28;;;17.78;66.63
80654;BME280;70020;45.524;10.240;2023-10-19T01:21:49;99527.19;;;17.85;66.87
80654;BME280;70020;45.524;10.240;2023-10-19T01:24:21;99527.50;;;17.98;67.07
80654;BME280;70020;45.524;10.240;2023-10-19T01:26:53;99523.63;;;17.61;67.32
80654;BME280;70020;45.524;10.240;2023-10-19T01:29:19;99523.28;;;17.73;67.45
80654;BME280;70020;45.524;10.240;2023-10-19T01:31:51;99514.94;;;17.93;67.41
80654;BME280;70020;45.524;10.240;2023-10-19T01:34:21;99503.78;;;17.99;66.63
80654;BME280;70020;45.524;10.240;2023-10-19T01:36:47;99499.56;;;17.90;66.28
80654;BME280;70020;45.524;10.240;2023-10-19T01:39:17;99499.69;;;17.97;66.79
80654;BME280;70020;45.524;10.240;2023-10-19T01:41:45;99492.97;;;18.02;66.76
80654;BME280;70020;45.524;10.240;2023-10-19T01:44:11;99493.09;;;18.09;67.06
80654;BME280;70020;45.524;10.240;2023-10-19T01:46:41;99492.06;;;17.79;67.05
80654;BME280;70020;45.524;10.240;2023-10-19T01:49:09;99491.31;;;18.01;66.72
80654;BME280;70020;45.524;10.240;2023-10-19T01:51:36;99493.59;;;18.12;66.60
80654;BME280;70020;45.524;10.240;2023-10-19T01:54:04;99484.75;;;18.13;66.47
80654;BME280;70020;45.524;10.240;2023-10-19T01:56:31;99480.53;;;18.04;66.47
80654;BME280;70020;45.524;10.240;2023-10-19T01:58:56;99479.06;;;18.02;66.53
80654;BME280;70020;45.524;10.240;2023-10-19T02:01:23;99482.16;;;18.05;66.40
80654;BME280;70020;45.524;10.240;2023-10-19T02:03:52;99482.81;;;17.99;66.33
80654;BME280;70020;45.524;10.240;2023-10-19T02:06:21;99478.72;;;18.05;66.47
80654;BME280;70020;45.524;10.240;2023-10-19T02:08:52;99472.34;;;18.07;66.46
80654;BME280;70020;45.524;10.240;2023-10-19T02:11:22;99478.34;;;18.16;66.13
80654;BME280;70020;45.524;10.240;2023-10-19T02:13:57;99474.28;;;18.13;65.94
80654;BME280;70020;45.524;10.240;2023-10-19T02:16:29;99476.22;;;18.19;65.87
80654;BME280;70020;45.524;10.240;2023-10-19T02:18:56;99463.41;;;18.24;65.58
80654;BME280;70020;45.524;10.240;2023-10-19T02:21:21;99458.25;;;18.08;66.25
80654;BME280;70020;45.524;10.240;2023-10-19T02:23:50;99457.06;;;18.19;66.27
80654;BME280;70020;45.524;10.240;2023-10-19T02:26:17;99451.31;;;18.23;66.14
80654;BME280;70020;45.524;10.240;2023-10-19T02:28:47;99453.59;;;18.26;65.81
80654;BME280;70020;45.524;10.240;2023-10-19T02:31:15;99435.28;;;18.18;66.02
80654;BME280;70020;45.524;10.240;2023-10-19T02:33:44;99438.38;;;18.22;65.75
80654;BME280;70020;45.524;10.240;2023-10-19T02:36:12;99435.28;;;18.26;65.55
80654;BME280;70020;45.524;10.240;2023-10-19T02:38:42;99422.97;;;18.27;65.62
80654;BME280;70020;45.524;10.240;2023-10-19T02:41:16;99420.19;;;18.28;65.44
80654;BME280;70020;45.524;10.240;2023-10-19T02:43:42;99415.28;;;18.25;65.48
80654;BME280;70020;45.524;10.240;2023-10-19T02:46:13;99421.16;;;18.27;65.36
80654;BME280;70020;45.524;10.240;2023-10-19T02:48:39;99428.38;;;18.25;65.32
80654;BME280;70020;45.524;10.240;2023-10-19T02:51:13;99423.34;;;18.24;65.63
80654;BME280;70020;45.524;10.240;2023-10-19T02:53:41;99420.88;;;18.22;65.61
80654;BME280;70020;45.524;10.240;2023-10-19T02:56:15;99415.81;;;18.21;65.69
80654;BME280;70020;45.524;10.240;2023-10-19T02:58:46;99407.00;;;18.14;65.85
80654;BME280;70020;45.524;10.240;2023-10-19T03:01:19;99407.34;;;18.11;66.10
80654;BME280;70020;45.524;10.240;2023-10-19T03:03:48;99397.81;;;18.18;65.88
80654;BME280;70020;45.524;10.240;2023-10-19T03:06:18;99398.31;;;18.21;65.57
80654;BME280;70020;45.524;10.240;2023-10-19T03:08:45;99396.06;;;18.10;65.82
80654;BME280;70020;45.524;10.240;2023-10-19T03:11:11;99393.41;;;18.18;65.79
80654;BME280;70020;45.524;10.240;2023-10-19T03:13:38;99384.84;;;18.24;65.33
80654;BME280;70020;45.524;10.240;2023-10-19T03:16:04;99382.09;;;18.18;65.51
80654;BME280;70020;45.524;10.240;2023-10-19T03:18:35;99376.72;;;18.19;65.63
80654;BME280;70020;45.524;10.240;2023-10-19T03:21:03;99377.88;;;18.17;65.49
80654;BME280;70020;45.524;10.240;2023-10-19T03:23:32;99371.19;;;18.14;65.93
80654;BME280;70020;45.524;10.240;2023-10-19T03:26:00;99372.16;;;18.13;65.85
80654;BME280;70020;45.524;10.240;2023-10-19T03:28:44;99369.84;;;18.18;65.91
80654;BME280;70020;45.524;10.240;2023-10-19T03:31:11;99363.66;;;18.11;65.99
80654;BME280;70020;45.524;10.240;2023-10-19T03:33:46;99365.31;;;18.12;66.13
80654;BME280;70020;45.524;10.240;2023-10-19T03:36:22;99357.56;;;18.19;65.74
80654;BME280;70020;45.524;10.240;2023-10-19T03:38:49;99360.53;;;18.16;66.04
80654;BME280;70020;45.524;10.240;2023-10-19T03:41:19;99354.53;;;18.07;66.45
80654;BME280;70020;45.524;10.240;2023-10-19T03:43:49;99350.22;;;18.14;66.35
80654;BME280;70020;45.524;10.240;2023-10-19T03:46:17;99348.41;;;18.15;66.27
80654;BME280;70020;45.524;10.240;2023-10-19T03:49:02;99346.78;;;18.14;66.47
80654;BME280;70020;45.524;10.240;2023-10-19T03:51:38;99350.78;;;18.02;66.69
80654;BME280;70020;45.524;10.240;2023-10-19T03:54:23;99343.44;;;17.97;67.07
80654;BME280;70020;45.524;10.240;2023-10-19T03:56:50;99343.91;;;18.01;67.36
80654;BME280;70020;45.524;10.240;2023-10-19T03:59:18;99341.47;;;17.99;66.89
80654;BME280;70020;45.524;10.240;2023-10-19T04:01:43;99342.75;;;18.03;66.66
80654;BME280;70020;45.524;10.240;2023-10-19T04:04:10;99347.34;;;18.01;67.14
80654;BME280;70020;45.524;10.240;2023-10-19T04:06:36;99332.88;;;18.13;67.00
80654;BME280;70020;45.524;10.240;2023-10-19T04:09:05;99329.75;;;18.18;66.86
80654;BME280;70020;45.524;10.240;2023-10-19T04:11:32;99315.91;;;18.09;67.11
80654;BME280;70020;45.524;10.240;2023-10-19T04:14:18;99320.13;;;17.80;67.67
80654;BME280;70020;45.524;10.240;2023-10-19T04:16:45;99322.47;;;18.05;67.05
80654;BME280;70020;45.524;10.240;2023-10-19T04:19:14;99310.31;;;18.12;66.90
80654;BME280;70020;45.524;10.240;2023-10-19T04:21:41;99315.03;;;18.17;66.51
80654;BME280;70020;45.524;10.240;2023-10-19T04:24:11;99301.13;;;18.16;66.77
80654;BME280;70020;45.524;10.240;2023-10-19T04:26:40;99305.13;;;18.04;66.80
80654;BME280;70020;45.524;10.240;2023-10-19T04:29:06;99286.31;;;18.01;67.11
80654;BME280;70020;45.524;10.240;2023-10-19T04:31:38;99279.34;;;17.93;67.43
80654;BME280;70020;45.524;10.240;2023-10-19T04:34:15;99269.22;;;18.13;66.78
80654;BME280;70020;45.524;10.240;2023-10-19T04:36:43;99267.84;;;18.02;66.96
80654;BME280;70020;45.524;10.240;2023-10-19T04:39:09;99259.88;;;18.18;66.49
80654;BME280;70020;45.524;10.240;2023-10-19T04:41:39;99256.72;;;18.23;66.25
80654;BME280;70020;45.524;10.240;2023-10-19T04:44:05;99246.53;;;18.28;66.25
80654;BME280;70020;45.524;10.240;2023-10-19T04:46:34;99252.22;;;18.31;66.21
80654;BME280;70020;45.524;10.240;2023-10-19T04:49:00;99256.81;;;18.29;66.25
80654;BME280;70020;45.524;10.240;2023-10-19T04:51:25;99263.41;;;18.25;66.61
80654;BME280;70020;45.524;10.240;2023-10-19T04:53:51;99268.22;;;18.36;66.17
80654;BME280;70020;45.524;10.240;2023-10-19T04:56:17;99269.84;;;18.38;66.34
80654;BME280;70020;45.524;10.240;2023-10-19T04:58:43;99269.13;;;18.44;66.21
80654;BME280;70020;45.524;10.240;2023-10-19T05:01:09;99278.31;;;18.48;66.14
80654;BME280;70020;45.524;10.240;2023-10-19T05:03:37;99272.09;;;18.49;65.98
80654;BME280;70020;45.524;10.240;2023-10-19T05:06:03;99271.53;;;18.53;65.79
80654;BME280;70020;45.524;10.240;2023-10-19T05:08:29;99273.19;;;18.54;65.85
80654;BME280;70020;45.524;10.240;2023-10-19T05:10:56;99275.53;;;18.49;66.18
80654;BME280;70020;45.524;10.240;2023-10-19T05:13:27;99271.38;;;18.55;65.95
80654;BME280;70020;45.524;10.240;2023-10-19T05:15:54;99275.72;;;18.48;65.76
80654;BME280;70020;45.524;10.240;2023-10-19T05:18:20;99266.84;;;18.49;65.92
80654;BME280;70020;45.524;10.240;2023-10-19T05:20:45;99282.16;;;18.60;65.50
80654;BME280;70020;45.524;10.240;2023-10-19T05:23:11;99278.44;;;18.54;65.44
80654;BME280;70020;45.524;10.240;2023-10-19T05:25:40;99277.41;;;18.55;65.72
80654;BME280;70020;45.524;10.240;2023-10-19T05:28:06;99266.59;;;18.58;65.67
80654;BME280;70020;45.524;10.240;2023-10-19T05:30:32;99273.28;;;18.61;65.27
80654;BME280;70020;45.524;10.240;2023-10-19T05:32:59;99269.41;;;18.57;65.34
80654;BME280;70020;45.524;10.240;2023-10-19T05:35:25;99270.38;;;18.56;65.38
80654;BME280;70020;45.524;10.240;2023-10-19T05:37:54;99270.91;;;18.51;65.47
80654;BME280;70020;45.524;10.240;2023-10-19T05:40:24;99275.63;;;18.56;65.12
80654;BME280;70020;45.524;10.240;2023-10-19T05:42:56;99283.94;;;18.59;65.33
80654;BME280;70020;45.524;10.240;2023-10-19T05:45:21;99281.69;;;18.56;65.53
80654;BME280;70020;45.524;10.240;2023-10-19T05:47:47;99284.84;;;18.52;65.37
80654;BME280;70020;45.524;10.240;2023-10-19T05:50:13;99278.97;;;18.50;65.79
80654;BME280;70020;45.524;10.240;2023-10-19T05:52:43;99284.94;;;18.35;65.87
80654;BME280;70020;45.524;10.240;2023-10-19T05:55:09;99271.59;;;18.22;66.42
80654;BME280;70020;45.524;10.240;2023-10-19T05:57:37;99260.06;;;18.17;66.80
80654;BME280;70020;45.524;10.240;2023-10-19T06:00:07;99253.50;;;18.13;66.83
80654;BME280;70020;45.524;10.240;2023-10-19T06:02:33;99255.34;;;18.12;67.05
80654;BME280;70020;45.524;10.240;2023-10-19T06:05:00;99256.00;;;18.29;66.99
80654;BME280;70020;45.524;10.240;2023-10-19T06:07:26;99264.34;;;18.32;66.70
80654;BME280;70020;45.524;10.240;2023-10-19T06:09:53;99255.94;;;18.37;66.74
80654;BME280;70020;45.524;10.240;2023-10-19T06:12:19;99260.66;;;18.42;66.49
80654;BME280;70020;45.524;10.240;2023-10-19T06:14:46;99260.16;;;18.46;66.43
80654;BME280;70020;45.524;10.240;2023-10-19T06:17:11;99258.16;;;18.48;66.39
80654;BME280;70020;45.524;10.240;2023-10-19T06:19:44;99258.63;;;18.52;66.13
80654;BME280;70020;45.524;10.240;2023-10-19T06:22:11;99257.91;;;18.58;66.31
80654;BME280;70020;45.524;10.240;2023-10-19T06:24:37;99247.53;;;18.50;66.33
80654;BME280;70020;45.524;10.240;2023-10-19T06:27:03;99251.22;;;18.55;65.89
80654;BME280;70020;45.524;10.240;2023-10-19T06:29:29;99246.72;;;18.64;66.03
80654;BME280;70020;45.524;10.240;2023-10-19T06:31:55;99253.03;;;18.69;65.65
80654;BME280;70020;45.524;10.240;2023-10-19T06:34:21;99237.69;;;18.66;65.67
80654;BME280;70020;45.524;10.240;2023-10-19T06:36:47;99245.47;;;18.74;65.89
80654;BME280;70020;45.524;10.240;2023-10-19T06:39:12;99247.75;;;18.77;65.90
80654;BME280;70020;45.524;10.240;2023-10-19T06:41:39;99253.31;;;18.74;65.95
80654;BME280;70020;45.524;10.240;2023-10-19T06:44:05;99248.22;;;18.81;65.88
80654;BME280;70020;45.524;10.240;2023-10-19T06:46:31;99253.59;;;18.79;65.84
80654;BME280;70020;45.524;10.240;2023-10-19T06:48:57;99247.09;;;18.75;66.26
80654;BME280;70020;45.524;10.240;2023-10-19T06:51:26;99242.94;;;18.66;66.59
80654;BME280;70020;45.524;10.240;2023-10-19T06:53:54;99236.34;;;18.70;66.57
80654;BME280;70020;45.524;10.240;2023-10-19T06:56:21;99230.91;;;18.72;66.41
80654;BME280;70020;45.524;10.240;2023-10-19T06:58:46;99227.03;;;18.82;65.95
80654;BME280;70020;45.524;10.240;2023-10-19T07:01:13;99235.19;;;18.87;65.71
80654;BME280;70020;45.524;10.240;2023-10-19T07:03:41;99237.81;;;18.87;66.02
80654;BME280;70020;45.524;10.240;2023-10-19T07:06:07;99238.25;;;18.91;65.89
80654;BME280;70020;45.524;10.240;2023-10-19T07:08:37;99244.31;;;18.91;65.85
80654;BME280;70020;45.524;10.240;2023-10-19T07:11:03;99246.56;;;18.94;66.17
80654;BME280;70020;45.524;10.240;2023-10-19T07:13:29;99242.31;;;18.93;65.69
80654;BME280;70020;45.524;10.240;2023-10-19T07:15:58;99242.25;;;19.01;65.70
80654;BME280;70020;45.524;10.240;2023-10-19T07:18:24;99250.09;;;19.01;66.13
80654;BME280;70020;45.524;10.240;2023-10-19T07:20:49;99244.03;;;19.01;65.91
80654;BME280;70020;45.524;10.240;2023-10-19T07:23:15;99245.69;;;19.02;66.00
80654;BME280;70020;45.524;10.240;2023-10-19T07:25:50;99242.88;;;19.03;66.14
80654;BME280;70020;45.524;10.240;2023-10-19T07:28:25;99232.94;;;18.99;66.04
80654;BME280;70020;45.524;10.240;2023-10-19T07:30:55;99242.88;;;19.03;65.96
80654;BME280;70020;45.524;10.240;2023-10-19T07:33:27;99231.91;;;19.00;65.65
80654;BME280;70020;45.524;10.240;2023-10-19T07:35:53;99212.69;;;18.78;65.35
80654;BME280;70020;45.524;10.240;2023-10-19T07:38:24;99206.44;;;18.79;65.26
80654;BME280;70020;45.524;10.240;2023-10-19T07:40:50;99200.38;;;18.93;65.22
80654;BME280;70020;45.524;10.240;2023-10-19T07:43:19;99200.38;;;18.93;65.75
80654;BME280;70020;45.524;10.240;2023-10-19T07:45:45;99185.00;;;19.05;65.88
80654;BME280;70020;45.524;10.240;2023-10-19T07:48:12;99183.81;;;19.08;66.18
80654;BME280;70020;45.524;10.240;2023-10-19T07:50:39;99201.00;;;19.10;66.80
80654;BME280;70020;45.524;10.240;2023-10-19T07:53:08;99207.75;;;19.19;66.24
80654;BME280;70020;45.524;10.240;2023-10-19T07:55:37;99218.25;;;19.19;66.19
80654;BME280;70020;45.524;10.240;2023-10-19T07:58:04;99214.56;;;19.28;66.25
80654;BME280;70020;45.524;10.240;2023-10-19T08:00:32;99215.53;;;19.27;66.28
80654;BME280;70020;45.524;10.240;2023-10-19T08:03:01;99212.66;;;19.22;65.24
80654;BME280;70020;45.524;10.240;2023-10-19T08:05:27;99209.94;;;19.30;65.22
80654;BME280;70020;45.524;10.240;2023-10-19T08:07:54;99207.94;;;19.18;65.25
80654;BME280;70020;45.524;10.240;2023-10-19T08:10:20;99215.34;;;19.29;65.94
80654;BME280;70020;45.524;10.240;2023-10-19T08:12:47;99208.28;;;19.29;65.40
80654;BME280;70020;45.524;10.240;2023-10-19T08:15:14;99200.97;;;19.39;65.11
80654;BME280;70020;45.524;10.240;2023-10-19T08:17:48;99190.84;;;19.36;64.70
80654;BME280;70020;45.524;10.240;2023-10-19T08:20:15;99176.75;;;19.37;65.34
80654;BME280;70020;45.524;10.240;2023-10-19T08:22:53;99170.13;;;19.41;65.12
80654;BME280;70020;45.524;10.240;2023-10-19T08:25:19;99173.38;;;19.43;65.04
80654;BME280;70020;45.524;10.240;2023-10-19T08:27:45;99163.25;;;19.40;64.95
80654;BME280;70020;45.524;10.240;2023-10-19T08:30:13;99164.25;;;19.39;65.42
80654;BME280;70020;45.524;10.240;2023-10-19T08:32:39;99163.06;;;19.42;65.51
80654;BME280;70020;45.524;10.240;2023-10-19T08:35:08;99155.88;;;19.50;65.08
80654;BME280;70020;45.524;10.240;2023-10-19T08:37:38;99154.28;;;19.49;65.06
80654;BME280;70020;45.524;10.240;2023-10-19T08:40:09;99152.53;;;19.56;64.89
80654;BME280;70020;45.524;10.240;2023-10-19T08:42:39;99157.88;;;19.48;64.95
80654;BME280;70020;45.524;10.240;2023-10-19T08:45:06;99158.25;;;19.45;65.27
80654;BME280;70020;45.524;10.240;2023-10-19T08:47:35;99165.34;;;19.30;65.33
80654;BME280;70020;45.524;10.240;2023-10-19T08:50:03;99165.16;;;19.32;65.19
80654;BME280;70020;45.524;10.240;2023-10-19T08:52:30;99162.31;;;19.33;65.21
80654;BME280;70020;45.524;10.240;2023-10-19T08:54:57;99167.56;;;19.33;65.26
80654;BME280;70020;45.524;10.240;2023-10-19T08:57:23;99175.94;;;19.37;65.11
80654;BME280;70020;45.524;10.240;2023-10-19T08:59:49;99181.50;;;19.34;65.11
80654;BME280;70020;45.524;10.240;2023-10-19T09:02:15;99173.31;;;19.22;65.38
80654;BME280;70020;45.524;10.240;2023-10-19T09:04:47;99163.44;;;19.24;65.50
80654;BME280;70020;45.524;10.240;2023-10-19T09:07:13;99171.75;;;19.28;64.70
80654;BME280;70020;45.524;10.240;2023-10-19T09:09:39;99180.19;;;19.23;65.23
80654;BME280;70020;45.524;10.240;2023-10-19T09:12:08;99176.09;;;19.35;64.92
80654;BME280;70020;45.524;10.240;2023-10-19T09:14:36;99178.06;;;19.33;64.60
80654;BME280;70020;45.524;10.240;2023-10-19T09:17:05;99156.09;;;19.34;65.05
80654;BME280;70020;45.524;10.240;2023-10-19T09:19:41;99139.09;;;19.30;65.51
80654;BME280;70020;45.524;10.240;2023-10-19T09:22:08;99125.38;;;19.28;65.39
80654;BME280;70020;45.524;10.240;2023-10-19T09:24:43;99120.75;;;19.30;65.08
80654;BME280;70020;45.524;10.240;2023-10-19T09:27:09;99117.59;;;19.20;65.40
80654;BME280;70020;45.524;10.240;2023-10-19T09:29:35;99110.06;;;19.32;64.16
80654;BME280;70020;45.524;10.240;2023-10-19T09:32:01;99101.19;;;19.33;63.99
80654;BME280;70020;45.524;10.240;2023-10-19T09:34:34;99106.75;;;19.38;64.55
80654;BME280;70020;45.524;10.240;2023-10-19T09:37:00;99109.28;;;19.52;64.33
80654;BME280;70020;45.524;10.240;2023-10-19T09:39:27;99115.59;;;19.58;64.80
80654;BME280;70020;45.524;10.240;2023-10-19T09:42:09;99116.84;;;19.62;64.74
80654;BME280;70020;45.524;10.240;2023-10-19T09:44:46;99114.72;;;19.72;64.85
80654;BME280;70020;45.524;10.240;2023-10-19T09:47:25;99097.91;;;19.66;65.26
80654;BME280;70020;45.524;10.240;2023-10-19T09:49:52;99105.16;;;19.64;64.73
80654;BME280;70020;45.524;10.240;2023-10-19T09:52:17;99113.16;;;19.78;64.79
80654;BME280;70020;45.524;10.240;2023-10-19T09:57:21;99114.97;;;19.77;64.73
80654;BME280;70020;45.524;10.240;2023-10-19T09:59:51;99112.53;;;19.76;65.17
80654;BME280;70020;45.524;10.240;2023-10-19T10:02:21;99123.16;;;19.67;64.88
80654;BME280;70020;45.524;10.240;2023-10-19T10:04:47;99110.69;;;19.76;64.82
80654;BME280;70020;45.524;10.240;2023-10-19T10:07:14;99101.88;;;19.84;64.96
80654;BME280;70020;45.524;10.240;2023-10-19T10:09:42;99094.22;;;19.82;65.41
80654;BME280;70020;45.524;10.240;2023-10-19T10:12:20;99090.91;;;20.01;64.37
80654;BME280;70020;45.524;10.240;2023-10-19T10:15:05;99079.91;;;20.19;63.74
80654;BME280;70020;45.524;10.240;2023-10-19T10:17:37;99081.41;;;20.28;64.51
80654;BME280;70020;45.524;10.240;2023-10-19T10:22:38;99063.66;;;20.30;63.50
80654;BME280;70020;45.524;10.240;2023-10-19T10:25:05;99072.00;;;20.12;63.47
80654;BME280;70020;45.524;10.240;2023-10-19T10:27:35;99066.72;;;20.06;64.19
80654;BME280;70020;45.524;10.240;2023-10-19T10:30:04;99075.78;;;20.03;63.89
80654;BME280;70020;45.524;10.240;2023-10-19T10:32:48;99066.50;;;20.07;63.84
80654;BME280;70020;45.524;10.240;2023-10-19T10:38:05;99069.34;;;20.06;65.25
80654;BME280;70020;45.524;10.240;2023-10-19T10:40:42;99063.66;;;20.30;64.01
80654;BME280;70020;45.524;10.240;2023-10-19T10:43:08;99070.81;;;20.15;64.35
80654;BME280;70020;45.524;10.240;2023-10-19T10:45:33;99063.91;;;20.14;64.07
80654;BME280;70020;45.524;10.240;2023-10-19T10:47:59;99059.81;;;20.05;64.58
80654;BME280;70020;45.524;10.240;2023-10-19T10:50:26;99063.84;;;20.01;64.20
80654;BME280;70020;45.524;10.240;2023-10-19T10:52:53;99078.56;;;20.02;64.25
80654;BME280;70020;45.524;10.240;2023-10-19T10:55:24;99078.56;;;20.02;64.88
80654;BME280;70020;45.524;10.240;2023-10-19T10:58:09;99075.75;;;19.97;64.71
80654;BME280;70020;45.524;10.240;2023-10-19T11:00:42;99074.25;;;19.88;64.70
80654;BME280;70020;45.524;10.240;2023-10-19T11:03:08;99081.91;;;19.83;64.94
80654;BME280;70020;45.524;10.240;2023-10-19T11:05:36;99085.47;;;19.75;64.50
80654;BME280;70020;45.524;10.240;2023-10-19T11:08:15;99082.69;;;19.83;64.69
80654;BME280;70020;45.524;10.240;2023-10-19T11:10:46;99084.31;;;19.84;65.09
80654;BME280;70020;45.524;10.240;2023-10-19T11:13:14;99075.00;;;19.82;64.75
80654;BME280;70020;45.524;10.240;2023-10-19T11:15:54;99055.81;;;19.81;65.42
80654;BME280;70020;45.524;10.240;2023-10-19T11:18:35;99028.66;;;19.95;64.21
80654;BME280;70020;45.524;10.240;2023-10-19T11:21:03;98987.84;;;19.93;64.13
80654;BME280;70020;45.524;10.240;2023-10-19T11:23:42;98976.72;;;19.91;64.02
80654;BME280;70020;45.524;10.240;2023-10-19T11:26:10;98977.56;;;19.98;64.96
80654;BME280;70020;45.524;10.240;2023-10-19T11:28:36;98964.75;;;20.16;64.69
80654;BME280;70020;45.524;10.240;2023-10-19T11:33:43;98986.97;;;20.20;64.58
80654;BME280;70020;45.524;10.240;2023-10-19T11:36:12;99019.84;;;20.09;64.20
80654;BME280;70020;45.524;10.240;2023-10-19T11:38:46;99043.22;;;19.98;65.13
80654;BME280;70020;45.524;10.240;2023-10-19T11:41:13;99036.81;;;19.79;65.64
80654;BME280;70020;45.524;10.240;2023-10-19T11:43:41;99043.88;;;19.79;65.21
80654;BME280;70020;45.524;10.240;2023-10-19T11:46:10;99047.19;;;19.38;65.78
80654;BME280;70020;45.524;10.240;2023-10-19T11:48:40;99048.47;;;19.42;65.46
80654;BME280;70020;45.524;10.240;2023-10-19T11:51:08;99062.88;;;19.53;65.57
80654;BME280;70020;45.524;10.240;2023-10-19T11:53:37;99053.91;;;19.47;65.63
80654;BME280;70020;45.524;10.240;2023-10-19T11:56:05;99044.44;;;19.46;65.35
80654;BME280;70020;45.524;10.240;2023-10-19T11:58:36;99045.19;;;19.61;65.42
80654;BME280;70020;45.524;10.240;2023-10-19T12:01:03;99051.78;;;19.57;65.76
80654;BME280;70020;45.524;10.240;2023-10-19T12:03:41;99052.97;;;19.55;65.20
80654;BME280;70020;45.524;10.240;2023-10-19T12:06:10;99062.34;;;19.64;65.15
80654;BME280;70020;45.524;10.240;2023-10-19T12:08:36;99054.53;;;19.71;65.99
80654;BME280;70020;45.524;10.240;2023-10-19T12:11:03;99038.09;;;19.62;65.68
80654;BME280;70020;45.524;10.240;2023-10-19T12:13:41;99021.69;;;19.53;65.15
80654;BME280;70020;45.524;10.240;2023-10-19T12:16:09;99013.53;;;19.69;65.38
80654;BME280;70020;45.524;10.240;2023-10-19T12:18:38;99008.09;;;19.71;64.55
80654;BME280;70020;45.524;10.240;2023-10-19T12:21:04;98985.91;;;19.74;65.25
80654;BME280;70020;45.524;10.240;2023-10-19T12:23:33;98982.16;;;19.83;65.11
80654;BME280;70020;45.524;10.240;2023-10-19T12:25:59;98996.66;;;19.85;64.90
80654;BME280;70020;45.524;10.240;2023-10-19T12:28:31;98988.41;;;19.88;65.14
80654;BME280;70020;45.524;10.240;2023-10-19T12:30:56;98980.53;;;19.88;65.15
80654;BME280;70020;45.524;10.240;2023-10-19T12:33:22;98989.44;;;19.87;64.95
80654;BME280;70020;45.524;10.240;2023-10-19T12:35:48;98987.31;;;19.76;66.04
80654;BME280;70020;45.524;10.240;2023-10-19T12:38:17;98988.75;;;19.79;65.68
80654;BME280;70020;45.524;10.240;2023-10-19T12:40:46;98980.28;;;19.49;64.53
80654;BME280;70020;45.524;10.240;2023-10-19T12:43:16;98992.31;;;19.37;64.91
80654;BME280;70020;45.524;10.240;2023-10-19T12:45:44;98986.56;;;19.54;66.23
80654;BME280;70020;45.524;10.240;2023-10-19T12:48:16;98997.38;;;19.66;66.53
80654;BME280;70020;45.524;10.240;2023-10-19T12:50:42;98993.63;;;19.82;66.09
80654;BME280;70020;45.524;10.240;2023-10-19T12:53:08;98975.63;;;19.79;65.70
80654;BME280;70020;45.524;10.240;2023-10-19T12:55:34;98976.81;;;19.76;66.05
80654;BME280;70020;45.524;10.240;2023-10-19T12:58:02;98989.81;;;19.84;65.37
80654;BME280;70020;45.524;10.240;2023-10-19T13:00:40;98987.06;;;19.99;65.92
80654;BME280;70020;45.524;10.240;2023-10-19T13:03:07;98983.00;;;19.90;66.13
80654;BME280;70020;45.524;10.240;2023-10-19T13:05:37;98984.81;;;19.89;66.13
80654;BME280;70020;45.524;10.240;2023-10-19T13:08:06;98983.19;;;19.95;66.00
80654;BME280;70020;45.524;10.240;2023-10-19T13:10:34;98987.00;;;19.86;66.04